メインページ
METAR-TAF:

METAR-TAF

空港 :

リガ, ラトビア

リガ国際空港

緯度: 56-55N, 経度: 023-58E, 海抜: 10m

現時点の気象観測

当レポートは20分前の14:20(UTC)に作成
東/北東の風 11kt、北東からの間で変化する
気温 24°C
湿度 57%
気圧 999 hPa
視程10km以上
高度3900ftの雲はほとんどない, 積乱雲.
高度4400ftの千切れ雲あり

METAR: EVRA 261420Z 07011KT 040V100 9999 FEW039CB BKN044 24/15 Q0999 NOSIG

時間: 17:40 (14:40 UTC)

予報

当レポートは40分前の14:00(UTC)に作成
予報は26日の 15時(UTC)から 27日の 15時(UTC)まで有効
北東の風 7kt
視程10km以上
高度3000ftの雲は散在している
高度4000ftの千切れ雲あり
26日の 15時(UTC)から 26日の 23時(UTC)まで一時的に
北東の風 15kt、最大28ktの突風を伴う
視程: 1500m
高度1500ftの千切れ雲あり, 積乱雲.
激しい雷雨, 雨
26日の 23時(UTC)から 27日の 01時(UTC)まで徐々に
の風 7kt
26日の 23時(UTC)から 27日の 06時(UTC)まで一時的に
視程: 1500m
高度500ftの千切れ雲あり
高度1000ftの千切れ雲あり, 積乱雲.
にわか雨
確率 40% :
26日の 23時(UTC)から 27日の 03時(UTC)まで一時的に
激しい雷雨
27日の 06時(UTC)から 27日の 12時(UTC)まで一時的に
高度2000ftの雲は散在している, 積乱雲.

TAF: EVRA 261400Z 2615/2715 05007KT 9999 SCT030 BKN040 TEMPO 2615/2623 05015G28KT 1500 TSRA BKN015CB BECMG 2623/2701 18007KT TEMPO 2623/2706 1500 SHRA BKN005 BKN010CB PROB40 TEMPO 2623/2703 TS TEMPO 2706/2712 SCT020CB

4,000以上の空港の気象観測と天気予報(METAR報とTAF報)

利用可能な観測所は地図上に黄色い丸と赤い丸で示す。

丸の上にカーソルを重ねると観測所名を参照できる。

次にクリックすると気象観測と天気予報を参照できる。

マップの切り替え:黒色「×」印の緑ボタンをクリックして拡大、「-」印の緑ボタンをクリックして縮小、緑色の三角印をクリックして隣りの地図に切り替え


METAR-TAF: